createdAt,value
2022-10-18T00:00:20.619Z,14.20
2022-10-18T00:02:47.753Z,12.80
2022-10-18T00:05:15.128Z,11.90
2022-10-18T00:07:42.026Z,14.35
2022-10-18T00:10:09.514Z,12.50
2022-10-18T00:12:37.851Z,16.98
2022-10-18T00:15:06.725Z,11.80
2022-10-18T00:17:38.448Z,13.73
2022-10-18T00:20:07.100Z,12.35
2022-10-18T00:22:37.238Z,13.40
2022-10-18T00:25:05.320Z,15.48
2022-10-18T00:28:02.478Z,14.40
2022-10-18T00:30:29.437Z,11.68
2022-10-18T00:32:56.428Z,12.70
2022-10-18T00:35:23.711Z,10.93
2022-10-18T00:37:50.732Z,10.48
2022-10-18T00:40:17.831Z,12.27
2022-10-18T00:42:44.878Z,11.60
2022-10-18T00:45:17.315Z,12.13
2022-10-18T00:47:48.480Z,13.32
2022-10-18T00:50:20.145Z,13.63
2022-10-18T00:52:51.723Z,10.47
2022-10-18T00:55:19.283Z,11.43
2022-10-18T00:57:47.174Z,11.73
2022-10-18T01:00:15.097Z,10.88
2022-10-18T01:02:43.784Z,12.65
2022-10-18T01:05:13.887Z,14.40
2022-10-18T01:07:46.777Z,14.25
2022-10-18T01:10:42.731Z,13.27
2022-10-18T01:13:34.316Z,13.68
2022-10-18T01:16:21.327Z,12.35
2022-10-18T01:19:12.067Z,11.87
2022-10-18T01:22:00.549Z,10.38
2022-10-18T01:27:51.055Z,13.18
2022-10-18T01:30:56.423Z,18.27
2022-10-18T01:33:26.984Z,10.50
2022-10-18T01:36:09.920Z,11.45
2022-10-18T01:38:38.986Z,12.18
2022-10-18T01:41:11.748Z,13.18
2022-10-18T01:43:43.956Z,12.60
2022-10-18T01:46:14.715Z,10.50
2022-10-18T01:48:41.878Z,12.45
2022-10-18T01:51:09.135Z,12.50
2022-10-18T01:53:36.635Z,12.93
2022-10-18T01:56:27.961Z,13.32
2022-10-18T01:59:05.220Z,10.00
2022-10-18T02:01:58.399Z,12.02
2022-10-18T02:04:32.400Z,13.27
2022-10-18T02:07:09.829Z,12.52
2022-10-18T02:09:50.976Z,12.43
2022-10-18T02:12:19.427Z,11.10
2022-10-18T02:14:48.541Z,10.90
2022-10-18T02:17:17.379Z,13.27
2022-10-18T02:19:52.333Z,12.15
2022-10-18T02:22:20.234Z,16.35
2022-10-18T02:24:54.232Z,12.20
2022-10-18T02:27:22.145Z,14.13
2022-10-18T02:29:49.742Z,13.43
2022-10-18T02:32:25.703Z,11.65
2022-10-18T02:35:09.335Z,14.30
2022-10-18T02:37:40.340Z,11.83
2022-10-18T02:40:10.324Z,13.13
2022-10-18T02:42:47.970Z,15.40
2022-10-18T02:45:16.763Z,11.18
2022-10-18T02:47:43.913Z,10.85
2022-10-18T02:50:11.238Z,10.27
2022-10-18T02:52:38.280Z,13.23
2022-10-18T02:55:06.566Z,11.48
2022-10-18T02:57:34.056Z,13.70
2022-10-18T03:00:01.407Z,12.52
2022-10-18T03:02:30.839Z,10.83
2022-10-18T03:04:57.927Z,15.82
2022-10-18T03:07:24.924Z,14.00
2022-10-18T03:09:51.953Z,16.20
2022-10-18T03:12:18.911Z,14.30
2022-10-18T03:14:45.846Z,11.83
2022-10-18T03:17:12.983Z,14.27
2022-10-18T03:19:40.153Z,14.07
2022-10-18T03:22:07.319Z,11.43
2022-10-18T03:24:34.308Z,15.80
2022-10-18T03:27:01.250Z,14.70
2022-10-18T03:29:28.799Z,13.45
2022-10-18T03:31:55.776Z,13.50
2022-10-18T03:34:22.659Z,16.38
2022-10-18T03:36:49.595Z,13.18
2022-10-18T03:39:18.667Z,12.40
2022-10-18T03:41:45.668Z,11.05
2022-10-18T03:44:12.817Z,15.20
2022-10-18T03:46:39.658Z,15.15
2022-10-18T03:49:06.496Z,13.98
2022-10-18T03:51:33.458Z,12.23
2022-10-18T03:54:00.515Z,16.25
2022-10-18T03:56:27.562Z,15.32
2022-10-18T03:58:54.679Z,12.70
2022-10-18T04:01:21.801Z,15.00
2022-10-18T04:03:48.808Z,15.03
2022-10-18T04:06:15.834Z,21.40
2022-10-18T04:08:42.808Z,13.40
2022-10-18T04:11:10.999Z,15.80
2022-10-18T04:13:38.043Z,16.13
2022-10-18T04:16:07.395Z,14.93
2022-10-18T04:18:34.397Z,17.10
2022-10-18T04:21:01.353Z,16.05
2022-10-18T04:23:28.472Z,15.60
2022-10-18T04:25:55.507Z,14.80
2022-10-18T04:28:22.417Z,12.50
2022-10-18T04:30:53.400Z,14.05
2022-10-18T04:33:20.818Z,11.07
2022-10-18T04:35:51.075Z,13.07
2022-10-18T04:38:18.468Z,17.08
2022-10-18T04:40:45.519Z,16.23
2022-10-18T04:43:12.774Z,11.40
2022-10-18T04:45:39.867Z,13.68
2022-10-18T04:48:07.106Z,14.27
2022-10-18T04:50:34.082Z,15.20
2022-10-18T04:53:01.082Z,14.67
2022-10-18T04:55:28.081Z,17.95
2022-10-18T04:57:55.158Z,16.23
2022-10-18T05:00:22.135Z,17.80
2022-10-18T05:02:49.451Z,14.85
2022-10-18T05:05:16.702Z,12.03
2022-10-18T05:07:46.774Z,17.77
2022-10-18T05:10:13.935Z,15.57
2022-10-18T05:12:40.936Z,12.93
2022-10-18T05:15:08.322Z,13.07
2022-10-18T05:17:35.675Z,17.50
2022-10-18T05:20:05.106Z,13.55
2022-10-18T05:22:32.394Z,15.32
2022-10-18T05:24:59.673Z,16.52
2022-10-18T05:27:26.612Z,14.68
2022-10-18T05:29:53.485Z,21.40
2022-10-18T05:32:20.663Z,18.20
2022-10-18T05:34:47.556Z,17.52
2022-10-18T05:37:14.789Z,15.18
2022-10-18T05:39:41.843Z,18.35
2022-10-18T05:42:09.006Z,15.60
2022-10-18T05:44:39.103Z,16.55
2022-10-18T05:47:06.130Z,16.38
2022-10-18T05:49:33.192Z,16.95
2022-10-18T05:52:00.168Z,14.93
2022-10-18T05:54:27.105Z,16.30
2022-10-18T05:56:53.977Z,18.65
2022-10-18T05:59:20.974Z,15.68
2022-10-18T06:01:47.970Z,18.45
2022-10-18T06:04:14.942Z,18.15
2022-10-18T06:06:42.021Z,24.97
2022-10-18T06:09:09.225Z,19.42
2022-10-18T06:11:37.301Z,17.02
2022-10-18T06:14:05.284Z,17.25
2022-10-18T06:16:32.857Z,17.73
2022-10-18T06:19:00.388Z,17.10
2022-10-18T06:21:27.720Z,15.15
2022-10-18T06:23:57.166Z,18.38
2022-10-18T06:26:24.852Z,16.70
2022-10-18T06:28:51.991Z,15.63
2022-10-18T06:31:19.254Z,18.93
2022-10-18T06:33:46.250Z,22.95
2022-10-18T06:36:15.892Z,15.00
2022-10-18T06:38:43.410Z,18.88
2022-10-18T06:41:11.127Z,18.45
2022-10-18T06:43:38.123Z,16.93
2022-10-18T06:46:08.205Z,18.55
2022-10-18T06:53:08.645Z,17.35
2022-10-18T06:55:36.041Z,17.38
2022-10-18T06:58:03.184Z,18.53
2022-10-18T07:00:30.265Z,18.67
2022-10-18T07:02:58.165Z,17.63
2022-10-18T07:05:25.601Z,19.40
2022-10-18T07:07:56.345Z,20.95
2022-10-18T07:10:24.584Z,18.13
2022-10-18T07:12:59.180Z,19.27
2022-10-18T07:15:38.635Z,16.98
2022-10-18T07:18:05.884Z,19.20
2022-10-18T07:20:32.940Z,19.40
2022-10-18T07:22:59.875Z,17.00
2022-10-18T07:25:28.504Z,18.80
2022-10-18T07:27:57.492Z,17.75
2022-10-18T07:30:24.459Z,20.35
2022-10-18T07:32:52.032Z,18.95
2022-10-18T07:35:19.080Z,18.97
2022-10-18T07:37:45.952Z,19.27
2022-10-18T07:40:13.307Z,19.98
2022-10-18T07:42:40.341Z,18.95
2022-10-18T07:45:07.717Z,18.55
2022-10-18T07:47:35.366Z,17.57
2022-10-18T07:50:02.495Z,17.80
2022-10-18T07:52:30.093Z,20.55
2022-10-18T07:54:57.250Z,18.60
2022-10-18T07:57:24.291Z,17.25
2022-10-18T07:59:56.503Z,20.30
2022-10-18T08:02:26.107Z,20.40
2022-10-18T08:04:53.120Z,17.70
2022-10-18T08:07:20.225Z,19.08
2022-10-18T08:09:47.400Z,18.70
2022-10-18T08:12:15.728Z,21.20
2022-10-18T08:14:42.838Z,19.73
2022-10-18T08:17:09.931Z,19.42
2022-10-18T08:19:36.847Z,21.02
2022-10-18T08:22:03.822Z,19.13
2022-10-18T08:24:31.055Z,19.73
2022-10-18T08:26:58.143Z,25.77
2022-10-18T08:29:29.184Z,18.55
2022-10-18T08:31:57.972Z,18.27
2022-10-18T08:34:25.201Z,24.08
2022-10-18T08:36:52.216Z,20.43
2022-10-18T08:39:19.149Z,23.30
2022-10-18T08:42:04.370Z,22.88
2022-10-18T08:44:33.083Z,22.33
2022-10-18T08:47:06.839Z,22.85
2022-10-18T08:49:47.179Z,21.50
2022-10-18T08:52:45.129Z,21.70
2022-10-18T08:55:38.574Z,20.05
2022-10-18T08:58:26.852Z,20.65
2022-10-18T09:00:56.956Z,22.45
2022-10-18T09:03:36.570Z,18.60
2022-10-18T09:06:10.234Z,19.38
2022-10-18T09:08:58.471Z,19.08
2022-10-18T09:11:40.437Z,14.68
2022-10-18T09:14:07.347Z,19.75
2022-10-18T09:16:49.552Z,14.87
2022-10-18T09:19:19.485Z,17.38
2022-10-18T09:21:55.200Z,15.18
2022-10-18T09:24:40.350Z,14.48
2022-10-18T09:27:18.756Z,14.98
2022-10-18T09:30:15.122Z,15.47
2022-10-18T09:33:00.431Z,15.73
2022-10-18T09:35:57.633Z,15.02
2022-10-18T09:39:00.456Z,13.43
2022-10-18T09:41:38.076Z,15.35
2022-10-18T09:44:26.000Z,13.60
2022-10-18T09:47:14.583Z,13.07
2022-10-18T09:49:51.416Z,14.32
2022-10-18T09:52:27.819Z,14.43
2022-10-18T09:55:02.591Z,9.82
2022-10-18T09:57:39.607Z,10.50
2022-10-18T10:00:17.177Z,8.70
2022-10-18T10:02:44.417Z,8.93
2022-10-18T10:05:15.887Z,13.93
2022-10-18T10:07:46.094Z,14.30
2022-10-18T10:10:29.041Z,15.80
2022-10-18T10:13:23.263Z,11.43
2022-10-18T10:16:00.641Z,15.50
2022-10-18T10:18:30.431Z,11.45
2022-10-18T10:21:00.439Z,10.48
2022-10-18T10:23:31.325Z,13.47
2022-10-18T10:26:02.310Z,11.10
2022-10-18T10:28:34.590Z,12.90
2022-10-18T10:31:30.866Z,12.05
2022-10-18T10:34:01.834Z,14.88
2022-10-18T10:36:30.148Z,14.23
2022-10-18T10:39:19.177Z,13.23
2022-10-18T10:42:01.047Z,14.15
2022-10-18T10:44:36.499Z,13.13
2022-10-18T10:47:04.586Z,13.23
2022-10-18T10:49:52.045Z,13.93
2022-10-18T10:52:28.428Z,14.52
2022-10-18T10:55:06.189Z,14.95
2022-10-18T10:57:40.003Z,18.38
2022-10-18T11:00:07.891Z,18.27
2022-10-18T11:02:37.018Z,14.57
2022-10-18T11:05:26.570Z,28.08
2022-10-18T11:08:04.399Z,16.02
2022-10-18T11:10:39.474Z,15.93
2022-10-18T11:13:49.946Z,15.23
2022-10-18T11:16:32.577Z,13.53
2022-10-18T11:19:03.379Z,15.88
2022-10-18T11:21:32.778Z,14.57
2022-10-18T11:24:03.286Z,20.98
2022-10-18T11:26:33.956Z,13.52
2022-10-18T11:29:37.713Z,18.60
2022-10-18T11:32:19.811Z,15.48
2022-10-18T11:34:52.927Z,16.20
2022-10-18T11:37:29.969Z,16.25
2022-10-18T11:40:03.884Z,15.27
2022-10-18T11:42:49.665Z,16.53
2022-10-18T11:45:25.804Z,18.15
2022-10-18T11:47:56.530Z,14.73
2022-10-18T11:50:43.631Z,16.27
2022-10-18T11:53:19.659Z,17.13
2022-10-18T11:56:28.163Z,20.47
2022-10-18T11:59:22.447Z,17.60
2022-10-18T12:01:49.246Z,15.30
2022-10-18T12:04:23.739Z,14.98
2022-10-18T12:06:56.721Z,16.75
2022-10-18T12:09:32.686Z,22.00
2022-10-18T12:12:02.659Z,17.00
2022-10-18T12:14:35.832Z,16.10
2022-10-18T12:17:39.843Z,16.50
2022-10-18T12:19:57.720Z,16.17
2022-10-18T12:22:49.619Z,15.00
2022-10-18T12:25:19.222Z,15.93
2022-10-18T12:28:16.564Z,15.18
2022-10-18T12:30:52.084Z,15.05
2022-10-18T12:33:28.191Z,14.32
2022-10-18T12:36:33.254Z,13.53
2022-10-18T12:39:07.070Z,14.20
2022-10-18T12:41:37.767Z,12.93
2022-10-18T12:44:15.731Z,14.27
2022-10-18T12:46:46.784Z,18.02
2022-10-18T12:49:17.750Z,15.27
2022-10-18T12:51:57.224Z,18.40
2022-10-18T12:54:29.399Z,15.02
2022-10-18T12:56:57.978Z,12.63
2022-10-18T12:59:28.310Z,14.93
2022-10-18T13:01:57.946Z,13.57
2022-10-18T13:04:27.955Z,20.08
2022-10-18T13:07:00.775Z,19.42
2022-10-18T13:09:30.318Z,15.73
2022-10-18T13:12:09.749Z,14.82
2022-10-18T13:14:48.228Z,14.00
2022-10-18T13:17:41.331Z,12.45
2022-10-18T13:20:59.452Z,14.43
2022-10-18T13:23:55.958Z,14.18
2022-10-18T13:26:37.112Z,12.95
2022-10-18T13:29:13.079Z,12.90
2022-10-18T13:31:49.831Z,12.68
2022-10-18T13:37:07.268Z,21.17
2022-10-18T13:39:38.115Z,26.45
2022-10-18T13:42:14.289Z,13.50
2022-10-18T13:44:43.792Z,8.43
2022-10-18T13:47:32.239Z,8.70
2022-10-18T13:50:07.214Z,6.13
2022-10-18T13:52:43.338Z,6.50
2022-10-18T13:55:13.080Z,7.13
2022-10-18T13:57:47.901Z,7.72
2022-10-18T14:03:55.480Z,6.93
2022-10-18T14:06:25.416Z,9.07
2022-10-18T14:09:06.348Z,7.00
2022-10-18T14:11:46.455Z,5.88
2022-10-18T14:14:23.360Z,7.80
2022-10-18T14:20:36.909Z,37.50
2022-10-18T14:23:38.170Z,6.73
2022-10-18T14:26:12.023Z,6.60
2022-10-18T14:28:58.631Z,6.38
2022-10-18T14:31:26.139Z,4.53
2022-10-18T14:33:57.940Z,10.80
2022-10-18T14:36:29.771Z,7.77
2022-10-18T14:38:58.116Z,9.38
2022-10-18T14:41:25.196Z,5.03
2022-10-18T14:43:54.940Z,4.35
2022-10-18T14:46:30.036Z,4.32
2022-10-18T14:49:05.144Z,15.77
2022-10-18T14:51:36.533Z,9.18
2022-10-18T14:54:04.970Z,4.63
2022-10-18T14:56:45.976Z,7.28
2022-10-18T14:59:24.345Z,8.30
2022-10-18T15:02:22.532Z,5.68
2022-10-18T15:05:14.620Z,6.75
2022-10-18T15:07:58.190Z,4.00
2022-10-18T15:10:38.325Z,3.50
2022-10-18T15:13:49.403Z,7.25
2022-10-18T15:16:35.205Z,3.33
2022-10-18T15:19:42.881Z,3.33
2022-10-18T15:22:33.067Z,5.00
2022-10-18T15:25:46.057Z,3.30
2022-10-18T15:28:54.083Z,4.95
2022-10-18T15:31:40.461Z,2.97
2022-10-18T15:34:12.012Z,5.32
2022-10-18T15:36:40.717Z,3.43
2022-10-18T15:39:14.248Z,8.15
2022-10-18T15:41:52.983Z,3.65
2022-10-18T15:44:28.757Z,6.43
2022-10-18T15:47:34.207Z,4.18
2022-10-18T15:50:05.310Z,4.50
2022-10-18T15:52:40.922Z,8.60
2022-10-18T15:55:30.557Z,4.93
2022-10-18T15:58:12.266Z,2.40
2022-10-18T16:00:41.422Z,2.92
2022-10-18T16:03:14.135Z,3.63
2022-10-18T16:05:45.666Z,3.17
2022-10-18T16:08:26.692Z,2.90
2022-10-18T16:10:54.794Z,2.75
2022-10-18T16:13:21.837Z,7.10
2022-10-18T16:15:49.442Z,3.20
2022-10-18T16:18:19.686Z,5.38
2022-10-18T16:20:52.673Z,3.22
2022-10-18T16:24:04.383Z,3.85
2022-10-18T16:26:32.271Z,2.90
2022-10-18T16:28:59.979Z,3.07
2022-10-18T16:31:30.440Z,4.80
2022-10-18T16:33:58.214Z,3.95
2022-10-18T16:36:29.132Z,6.10
2022-10-18T16:39:01.371Z,2.90
2022-10-18T16:41:28.876Z,4.27
2022-10-18T16:43:55.842Z,4.65
2022-10-18T16:46:27.566Z,3.08
2022-10-18T16:48:59.358Z,5.72
2022-10-18T16:51:32.854Z,2.55
2022-10-18T16:54:07.227Z,3.00
2022-10-18T16:56:34.345Z,2.78
2022-10-18T16:59:02.145Z,4.65
2022-10-18T17:01:29.189Z,3.05
2022-10-18T17:03:59.101Z,3.90
2022-10-18T17:06:33.081Z,3.30
2022-10-18T17:09:00.099Z,4.05
2022-10-18T17:11:28.462Z,6.13
2022-10-18T17:13:56.016Z,2.92
2022-10-18T17:16:34.388Z,4.88
2022-10-18T17:19:04.737Z,5.17
2022-10-18T17:25:14.979Z,3.25
2022-10-18T17:28:20.901Z,2.58
2022-10-18T17:33:45.587Z,3.42
2022-10-18T17:36:14.818Z,5.60
2022-10-18T17:39:31.583Z,3.20
2022-10-18T17:47:26.256Z,2.17
2022-10-18T17:50:43.559Z,3.45
2022-10-18T17:53:56.736Z,2.73
2022-10-18T17:56:31.241Z,2.40
2022-10-18T17:58:59.715Z,3.13
2022-10-18T18:01:26.934Z,2.30
2022-10-18T18:03:58.640Z,2.25
2022-10-18T18:06:31.534Z,2.93
2022-10-18T18:09:00.276Z,2.70
2022-10-18T18:11:27.815Z,4.32
2022-10-18T18:13:56.632Z,3.05
2022-10-18T18:16:26.480Z,2.95
2022-10-18T18:18:56.416Z,2.60
2022-10-18T18:21:25.000Z,3.45
2022-10-18T18:23:52.777Z,2.15
2022-10-18T18:26:21.296Z,2.63
2022-10-18T18:28:48.841Z,2.47
2022-10-18T18:31:25.462Z,2.27
2022-10-18T18:33:54.942Z,2.40
2022-10-18T18:36:25.535Z,2.80
2022-10-18T18:38:56.907Z,3.50
2022-10-18T18:41:26.481Z,3.47
2022-10-18T18:43:59.003Z,3.27
2022-10-18T18:46:33.330Z,5.97
2022-10-18T18:49:00.784Z,3.58
2022-10-18T18:51:28.092Z,4.35
2022-10-18T18:53:55.231Z,2.83
2022-10-18T18:56:24.996Z,3.50
2022-10-18T18:58:53.040Z,2.83
2022-10-18T19:01:23.863Z,2.47
2022-10-18T19:03:53.217Z,3.40
2022-10-18T19:06:23.467Z,2.80
2022-10-18T19:08:55.594Z,2.83
2022-10-18T19:11:23.093Z,2.97
2022-10-18T19:13:50.347Z,2.85
2022-10-18T19:16:19.371Z,2.65
2022-10-18T19:18:54.910Z,2.40
2022-10-18T19:21:25.523Z,3.47
2022-10-18T19:23:52.886Z,2.85
2022-10-18T19:26:25.720Z,2.67
2022-10-18T19:28:56.003Z,3.63
2022-10-18T19:31:23.242Z,2.65
2022-10-18T19:33:59.288Z,2.17
2022-10-18T19:36:28.333Z,3.45
2022-10-18T19:38:55.362Z,16.27
2022-10-18T19:43:56.775Z,3.30
2022-10-18T19:46:27.428Z,2.87
2022-10-18T19:48:54.696Z,4.03
2022-10-18T20:43:30.175Z,2.40
2022-10-18T20:45:58.858Z,2.17
2022-10-18T20:48:26.818Z,2.60
2022-10-18T20:50:53.751Z,2.27
2022-10-18T20:53:22.312Z,3.50
2022-10-18T20:55:50.172Z,2.25
2022-10-18T20:58:17.423Z,2.10
2022-10-18T21:00:44.308Z,2.40
2022-10-18T21:05:39.119Z,2.47
2022-10-18T21:08:06.043Z,2.70
2022-10-18T21:10:34.185Z,2.90
2022-10-18T21:13:01.252Z,2.42
2022-10-18T21:15:28.313Z,2.30
2022-10-18T21:17:55.329Z,4.53
2022-10-18T21:20:22.318Z,2.63
2022-10-18T21:22:51.922Z,2.83
2022-10-18T21:25:19.034Z,2.72
2022-10-18T21:27:46.051Z,2.70
2022-10-18T21:32:45.147Z,3.63
2022-10-18T21:35:12.333Z,2.22
2022-10-18T21:37:39.434Z,2.50
2022-10-18T21:40:08.565Z,2.22
2022-10-18T21:42:35.669Z,2.88
2022-10-18T21:45:03.089Z,2.80
2022-10-18T21:47:30.155Z,2.85
2022-10-18T21:49:58.048Z,5.13
2022-10-18T21:52:27.100Z,2.43
2022-10-18T21:54:54.108Z,2.47
2022-10-18T21:57:21.146Z,2.88
2022-10-18T21:59:48.034Z,2.80
2022-10-18T22:02:15.391Z,2.90
2022-10-18T22:04:42.387Z,2.70
2022-10-18T22:07:09.527Z,3.63
2022-10-18T22:09:36.496Z,3.20
2022-10-18T22:12:03.902Z,2.60
2022-10-18T22:14:31.042Z,3.30
2022-10-18T22:16:58.078Z,2.47
2022-10-18T22:19:25.064Z,2.20
2022-10-18T22:21:52.092Z,2.40
2022-10-18T22:24:19.249Z,3.05
2022-10-18T22:26:46.912Z,4.30
2022-10-18T22:29:19.532Z,2.90
2022-10-18T22:31:49.909Z,3.78
2022-10-18T22:34:22.497Z,2.63
2022-10-18T22:36:49.972Z,2.22
2022-10-18T22:39:17.518Z,3.28
2022-10-18T22:41:44.918Z,3.17
2022-10-18T22:44:13.221Z,3.42
2022-10-18T22:46:41.561Z,3.72
2022-10-18T22:49:08.690Z,2.97
2022-10-18T22:54:07.552Z,2.73
2022-10-18T22:56:35.087Z,4.10
2022-10-18T22:59:02.126Z,2.38
2022-10-18T23:01:29.713Z,2.85
2022-10-18T23:03:58.742Z,3.60
2022-10-18T23:06:36.379Z,2.93
2022-10-18T23:09:06.819Z,3.15
2022-10-18T23:11:34.831Z,3.67
2022-10-18T23:14:03.862Z,2.85
2022-10-18T23:16:31.481Z,2.15
2022-10-18T23:18:59.549Z,3.23
2022-10-18T23:21:28.238Z,3.33
2022-10-18T23:23:56.233Z,2.60
2022-10-18T23:26:26.246Z,3.08
2022-10-18T23:28:54.765Z,2.42
2022-10-18T23:31:30.695Z,2.83
2022-10-18T23:34:01.259Z,3.47
2022-10-18T23:36:28.783Z,2.55
2022-10-18T23:38:56.394Z,2.45
2022-10-18T23:41:23.743Z,2.97
2022-10-18T23:43:51.100Z,2.50
2022-10-18T23:46:18.607Z,3.03
2022-10-18T23:48:46.350Z,3.15
2022-10-18T23:51:13.962Z,2.70
2022-10-18T23:53:40.970Z,2.88
2022-10-18T23:56:13.840Z,2.40
2022-10-18T23:58:41.502Z,2.10
